Disclaimer

Please do not use the information listed here in-flight or in-navigation, as they are not provided to us by the airports but are provided by volunteers, so they might be outdated.

Search


Regions


Airport information page

Radio informations:
HALIFAX RDO - 123.275 MHz
GANDER CNTR - 133.0 MHz

Airport informations:
Latitude: 51° 23' 31.00" N
Longitude: 056° 04' 59.00" W
Elevation: 108 feet - 33 meters
Operating hours: N/A
Operating agency: Civil government, landing fees and diplomatic clearance may be required
Timezone: Second Sunday in March at 0200 to first Sunday in November at 0200 local time (Exception Arizona and that portion of Indiana in the Eastern Time Zone)
Fuel: Jet A1, without icing nhibitor.

100/130 MIL Spec, low lead, aviation gasoline (BLUE)

Runway information:
10/28 - 4000 x 100 feet< - >1219 x 30 meters

Recent METARs:
CYAY 190100Z AUTO 28014KT 9SM CLR M10/M13 A3003 RMK ICG SLP175
CYAY 190200Z AUTO 29018G24KT 9SM CLR M09/M13 A3005 RMK ICG SLP179
CYAY 190200Z AUTO 29018G24KT 9SM CLR M09/M13 A3005 RMK ICG SLP179

Airport on the map: